sensor_id;sensor_type;location;lat;lon;timestamp;pressure;altitude;pressure_sealevel;temperature;humidity
41264;BME280;26998;48.714;9.414;2023-03-26T00:00:50;99020.28;;;7.42;100.00
41264;BME280;26998;48.714;9.414;2023-03-26T00:03:17;99027.41;;;7.41;100.00
41264;BME280;26998;48.714;9.414;2023-03-26T00:05:44;99027.13;;;7.36;100.00
41264;BME280;26998;48.714;9.414;2023-03-26T00:08:11;99004.34;;;7.33;100.00
41264;BME280;26998;48.714;9.414;2023-03-26T00:10:39;98991.19;;;7.40;100.00
41264;BME280;26998;48.714;9.414;2023-03-26T00:13:07;99008.94;;;7.48;100.00
41264;BME280;26998;48.714;9.414;2023-03-26T00:15:35;99057.31;;;7.43;100.00
41264;BME280;26998;48.714;9.414;2023-03-26T00:18:02;99108.19;;;7.40;100.00
41264;BME280;26998;48.714;9.414;2023-03-26T00:20:30;99107.22;;;7.33;100.00
41264;BME280;26998;48.714;9.414;2023-03-26T00:22:56;99144.31;;;7.26;100.00
41264;BME280;26998;48.714;9.414;2023-03-26T00:25:23;99189.16;;;7.13;100.00
41264;BME280;26998;48.714;9.414;2023-03-26T00:27:49;99208.44;;;7.07;100.00
41264;BME280;26998;48.714;9.414;2023-03-26T00:30:16;99221.06;;;6.97;100.00
41264;BME280;26998;48.714;9.414;2023-03-26T00:32:43;99247.63;;;6.88;100.00
41264;BME280;26998;48.714;9.414;2023-03-26T00:35:19;99263.06;;;6.85;100.00
41264;BME280;26998;48.714;9.414;2023-03-26T00:37:45;99272.88;;;6.84;100.00
41264;BME280;26998;48.714;9.414;2023-03-26T00:40:12;99274.19;;;6.88;100.00
41264;BME280;26998;48.714;9.414;2023-03-26T00:42:38;99272.22;;;6.90;100.00
41264;BME280;26998;48.714;9.414;2023-03-26T00:45:06;99274.88;;;6.90;100.00
41264;BME280;26998;48.714;9.414;2023-03-26T00:47:33;99279.34;;;6.90;100.00
41264;BME280;26998;48.714;9.414;2023-03-26T00:49:59;99237.00;;;6.97;100.00
41264;BME280;26998;48.714;9.414;2023-03-26T00:52:26;99189.66;;;7.00;100.00
41264;BME280;26998;48.714;9.414;2023-03-26T00:54:53;99123.22;;;7.08;100.00
41264;BME280;26998;48.714;9.414;2023-03-26T00:57:20;99078.88;;;7.09;100.00
41264;BME280;26998;48.714;9.414;2023-03-26T01:00:00;99075.41;;;7.00;100.00
41264;BME280;26998;48.714;9.414;2023-03-26T01:02:27;99105.81;;;6.89;100.00
41264;BME280;26998;48.714;9.414;2023-03-26T01:04:57;99114.94;;;6.87;100.00
41264;BME280;26998;48.714;9.414;2023-03-26T01:07:25;99110.50;;;6.79;100.00
41264;BME280;26998;48.714;9.414;2023-03-26T01:09:53;99124.59;;;6.71;100.00
41264;BME280;26998;48.714;9.414;2023-03-26T01:12:22;99130.72;;;6.72;100.00
41264;BME280;26998;48.714;9.414;2023-03-26T01:14:51;99129.75;;;6.73;100.00
41264;BME280;26998;48.714;9.414;2023-03-26T01:17:18;99133.06;;;6.67;100.00
41264;BME280;26998;48.714;9.414;2023-03-26T01:19:53;99138.19;;;6.60;100.00
41264;BME280;26998;48.714;9.414;2023-03-26T01:22:24;99135.03;;;6.57;100.00
41264;BME280;26998;48.714;9.414;2023-03-26T01:24:52;99135.38;;;6.54;100.00
41264;BME280;26998;48.714;9.414;2023-03-26T01:27:21;99148.16;;;6.50;100.00
41264;BME280;26998;48.714;9.414;2023-03-26T01:35:21;99120.63;;;6.51;100.00
41264;BME280;26998;48.714;9.414;2023-03-26T01:40:28;99127.06;;;6.40;100.00
41264;BME280;26998;48.714;9.414;2023-03-26T01:43:03;99108.81;;;6.37;100.00
41264;BME280;26998;48.714;9.414;2023-03-26T01:45:33;99090.91;;;6.39;100.00
41264;BME280;26998;48.714;9.414;2023-03-26T01:48:02;99081.59;;;6.43;100.00
41264;BME280;26998;48.714;9.414;2023-03-26T01:50:29;99058.38;;;6.45;100.00
41264;BME280;26998;48.714;9.414;2023-03-26T01:52:56;99028.84;;;6.32;100.00
41264;BME280;26998;48.714;9.414;2023-03-26T01:55:28;99054.25;;;6.27;100.00
41264;BME280;26998;48.714;9.414;2023-03-26T01:58:15;99072.44;;;6.13;100.00
41264;BME280;26998;48.714;9.414;2023-03-26T02:01:10;99078.94;;;6.19;100.00
41264;BME280;26998;48.714;9.414;2023-03-26T02:04:09;99067.81;;;6.32;100.00
41264;BME280;26998;48.714;9.414;2023-03-26T02:06:46;99064.69;;;6.28;100.00
41264;BME280;26998;48.714;9.414;2023-03-26T02:09:21;99052.72;;;6.32;100.00
41264;BME280;26998;48.714;9.414;2023-03-26T02:11:50;99048.75;;;6.28;100.00
41264;BME280;26998;48.714;9.414;2023-03-26T02:14:17;99052.25;;;6.20;100.00
41264;BME280;26998;48.714;9.414;2023-03-26T02:16:43;99050.09;;;6.24;100.00
41264;BME280;26998;48.714;9.414;2023-03-26T02:19:10;99049.44;;;6.30;100.00
41264;BME280;26998;48.714;9.414;2023-03-26T02:21:36;99023.38;;;6.25;100.00
41264;BME280;26998;48.714;9.414;2023-03-26T02:24:03;99012.75;;;6.25;100.00
41264;BME280;26998;48.714;9.414;2023-03-26T02:26:31;99012.25;;;6.22;100.00
41264;BME280;26998;48.714;9.414;2023-03-26T02:28:58;99007.63;;;6.24;100.00
41264;BME280;26998;48.714;9.414;2023-03-26T02:31:25;99003.47;;;6.30;100.00
41264;BME280;26998;48.714;9.414;2023-03-26T02:33:52;98977.75;;;6.30;100.00
41264;BME280;26998;48.714;9.414;2023-03-26T02:36:19;98955.50;;;6.39;100.00
41264;BME280;26998;48.714;9.414;2023-03-26T02:38:46;98920.34;;;6.37;100.00
41264;BME280;26998;48.714;9.414;2023-03-26T02:41:13;98926.94;;;6.41;100.00
41264;BME280;26998;48.714;9.414;2023-03-26T02:43:39;98903.38;;;6.46;100.00
41264;BME280;26998;48.714;9.414;2023-03-26T02:46:05;98873.69;;;6.51;100.00
41264;BME280;26998;48.714;9.414;2023-03-26T02:48:32;98832.84;;;6.52;100.00
41264;BME280;26998;48.714;9.414;2023-03-26T02:50:59;98811.75;;;6.59;100.00
41264;BME280;26998;48.714;9.414;2023-03-26T02:53:26;98788.84;;;6.58;100.00
41264;BME280;26998;48.714;9.414;2023-03-26T02:55:53;98778.03;;;6.59;100.00
41264;BME280;26998;48.714;9.414;2023-03-26T02:58:19;98771.25;;;6.57;100.00
41264;BME280;26998;48.714;9.414;2023-03-26T03:00:46;98793.84;;;6.53;100.00
41264;BME280;26998;48.714;9.414;2023-03-26T03:03:13;98807.66;;;6.48;100.00
41264;BME280;26998;48.714;9.414;2023-03-26T03:05:39;98817.13;;;6.42;100.00
41264;BME280;26998;48.714;9.414;2023-03-26T03:08:06;98818.09;;;6.41;100.00
41264;BME280;26998;48.714;9.414;2023-03-26T03:10:32;98826.94;;;6.42;100.00
41264;BME280;26998;48.714;9.414;2023-03-26T03:12:59;98830.41;;;6.34;100.00
41264;BME280;26998;48.714;9.414;2023-03-26T03:15:26;98848.34;;;6.32;100.00
41264;BME280;26998;48.714;9.414;2023-03-26T03:17:52;98837.72;;;6.32;100.00
41264;BME280;26998;48.714;9.414;2023-03-26T03:20:18;98843.88;;;6.33;100.00
41264;BME280;26998;48.714;9.414;2023-03-26T03:22:45;98845.19;;;6.37;100.00
41264;BME280;26998;48.714;9.414;2023-03-26T03:25:11;98845.50;;;6.42;100.00
41264;BME280;26998;48.714;9.414;2023-03-26T03:27:39;98858.94;;;6.40;100.00
41264;BME280;26998;48.714;9.414;2023-03-26T03:30:07;98868.41;;;6.35;100.00
41264;BME280;26998;48.714;9.414;2023-03-26T03:32:34;98863.63;;;6.30;100.00
41264;BME280;26998;48.714;9.414;2023-03-26T03:35:00;98867.94;;;6.31;100.00
41264;BME280;26998;48.714;9.414;2023-03-26T03:37:27;98861.59;;;6.40;100.00
41264;BME280;26998;48.714;9.414;2023-03-26T03:39:53;98833.06;;;6.42;100.00
41264;BME280;26998;48.714;9.414;2023-03-26T03:42:19;98810.00;;;6.43;100.00
41264;BME280;26998;48.714;9.414;2023-03-26T03:44:46;98801.19;;;6.42;100.00
41264;BME280;26998;48.714;9.414;2023-03-26T03:47:12;98821.63;;;6.42;100.00
41264;BME280;26998;48.714;9.414;2023-03-26T03:49:39;98844.03;;;6.39;100.00
41264;BME280;26998;48.714;9.414;2023-03-26T03:52:06;98865.25;;;6.39;100.00
41264;BME280;26998;48.714;9.414;2023-03-26T03:54:33;98872.91;;;6.34;100.00
41264;BME280;26998;48.714;9.414;2023-03-26T03:56:59;98888.34;;;6.31;100.00
41264;BME280;26998;48.714;9.414;2023-03-26T03:59:26;98896.78;;;6.26;100.00
41264;BME280;26998;48.714;9.414;2023-03-26T04:01:52;98920.69;;;6.26;100.00
41264;BME280;26998;48.714;9.414;2023-03-26T04:04:18;98920.53;;;6.19;100.00
41264;BME280;26998;48.714;9.414;2023-03-26T04:06:45;98927.34;;;6.06;100.00
41264;BME280;26998;48.714;9.414;2023-03-26T04:09:11;98937.97;;;5.97;100.00
41264;BME280;26998;48.714;9.414;2023-03-26T04:11:38;98955.56;;;5.98;100.00
41264;BME280;26998;48.714;9.414;2023-03-26T04:14:04;98979.41;;;6.07;100.00
41264;BME280;26998;48.714;9.414;2023-03-26T04:16:31;98987.03;;;6.10;100.00
41264;BME280;26998;48.714;9.414;2023-03-26T04:18:57;98995.00;;;6.10;100.00
41264;BME280;26998;48.714;9.414;2023-03-26T04:21:24;98996.16;;;6.07;100.00
41264;BME280;26998;48.714;9.414;2023-03-26T04:23:50;98992.69;;;6.07;100.00
41264;BME280;26998;48.714;9.414;2023-03-26T04:26:17;98985.56;;;5.99;100.00
41264;BME280;26998;48.714;9.414;2023-03-26T04:28:49;98996.31;;;5.97;100.00
41264;BME280;26998;48.714;9.414;2023-03-26T04:31:18;99002.25;;;5.91;100.00
41264;BME280;26998;48.714;9.414;2023-03-26T04:33:46;99007.88;;;5.88;100.00
41264;BME280;26998;48.714;9.414;2023-03-26T04:36:14;99019.72;;;5.94;100.00
41264;BME280;26998;48.714;9.414;2023-03-26T04:38:44;99010.56;;;5.80;100.00
41264;BME280;26998;48.714;9.414;2023-03-26T04:41:12;99018.16;;;5.75;100.00
41264;BME280;26998;48.714;9.414;2023-03-26T04:43:39;99031.41;;;5.75;100.00
41264;BME280;26998;48.714;9.414;2023-03-26T04:46:06;99029.78;;;5.74;100.00
41264;BME280;26998;48.714;9.414;2023-03-26T04:48:33;99045.69;;;5.74;100.00
41264;BME280;26998;48.714;9.414;2023-03-26T04:51:00;99040.38;;;5.74;100.00
41264;BME280;26998;48.714;9.414;2023-03-26T04:53:27;99041.03;;;5.76;100.00
41264;BME280;26998;48.714;9.414;2023-03-26T04:56:00;99037.22;;;5.78;100.00
41264;BME280;26998;48.714;9.414;2023-03-26T04:58:28;99043.03;;;5.82;100.00
41264;BME280;26998;48.714;9.414;2023-03-26T05:00:55;99028.28;;;5.79;100.00
41264;BME280;26998;48.714;9.414;2023-03-26T05:03:21;99016.50;;;5.74;100.00
41264;BME280;26998;48.714;9.414;2023-03-26T05:05:48;99015.16;;;5.70;100.00
41264;BME280;26998;48.714;9.414;2023-03-26T05:08:14;99019.16;;;5.74;100.00
41264;BME280;26998;48.714;9.414;2023-03-26T05:10:41;99030.78;;;5.81;100.00
41264;BME280;26998;48.714;9.414;2023-03-26T05:13:07;99030.78;;;5.89;100.00
41264;BME280;26998;48.714;9.414;2023-03-26T05:15:34;99040.22;;;5.92;100.00
41264;BME280;26998;48.714;9.414;2023-03-26T05:18:00;99008.91;;;5.87;100.00
41264;BME280;26998;48.714;9.414;2023-03-26T05:20:29;99005.41;;;5.87;100.00
41264;BME280;26998;48.714;9.414;2023-03-26T05:22:55;99008.75;;;5.89;100.00
41264;BME280;26998;48.714;9.414;2023-03-26T05:25:22;99004.25;;;5.89;100.00
41264;BME280;26998;48.714;9.414;2023-03-26T05:27:49;98984.88;;;5.89;100.00
41264;BME280;26998;48.714;9.414;2023-03-26T05:30:18;98966.44;;;5.87;100.00
41264;BME280;26998;48.714;9.414;2023-03-26T05:32:46;98955.22;;;5.93;100.00
41264;BME280;26998;48.714;9.414;2023-03-26T05:35:14;98960.19;;;5.96;100.00
41264;BME280;26998;48.714;9.414;2023-03-26T05:37:42;98958.53;;;5.95;100.00
41264;BME280;26998;48.714;9.414;2023-03-26T05:40:09;98956.72;;;5.96;100.00
41264;BME280;26998;48.714;9.414;2023-03-26T05:42:37;98959.19;;;5.97;100.00
41264;BME280;26998;48.714;9.414;2023-03-26T05:45:05;98959.69;;;6.01;100.00
41264;BME280;26998;48.714;9.414;2023-03-26T05:47:32;98973.47;;;6.05;100.00
41264;BME280;26998;48.714;9.414;2023-03-26T05:49:59;99001.66;;;6.06;100.00
41264;BME280;26998;48.714;9.414;2023-03-26T05:52:26;99001.00;;;5.95;100.00
41264;BME280;26998;48.714;9.414;2023-03-26T05:54:52;99015.25;;;6.03;100.00
41264;BME280;26998;48.714;9.414;2023-03-26T05:57:19;99020.03;;;6.07;100.00
41264;BME280;26998;48.714;9.414;2023-03-26T05:59:45;98830.50;;;6.10;100.00
41264;BME280;26998;48.714;9.414;2023-03-26T06:02:12;98256.41;;;6.11;100.00
41264;BME280;26998;48.714;9.414;2023-03-26T06:04:38;98249.38;;;6.18;100.00
41264;BME280;26998;48.714;9.414;2023-03-26T06:07:06;98243.41;;;6.16;100.00
41264;BME280;26998;48.714;9.414;2023-03-26T06:09:33;98246.53;;;6.05;100.00
41264;BME280;26998;48.714;9.414;2023-03-26T06:11:59;98232.91;;;5.93;100.00
41264;BME280;26998;48.714;9.414;2023-03-26T06:14:26;98227.25;;;5.96;100.00
41264;BME280;26998;48.714;9.414;2023-03-26T06:16:52;98196.16;;;6.05;100.00
41264;BME280;26998;48.714;9.414;2023-03-26T06:19:19;98177.66;;;6.11;100.00
41264;BME280;26998;48.714;9.414;2023-03-26T06:21:45;98167.28;;;6.16;100.00
41264;BME280;26998;48.714;9.414;2023-03-26T06:24:12;98165.47;;;6.17;100.00
41264;BME280;26998;48.714;9.414;2023-03-26T06:26:38;98166.53;;;6.22;100.00
41264;BME280;26998;48.714;9.414;2023-03-26T06:29:05;98162.69;;;6.25;100.00
41264;BME280;26998;48.714;9.414;2023-03-26T06:31:31;98159.41;;;6.23;100.00
41264;BME280;26998;48.714;9.414;2023-03-26T06:33:58;98153.31;;;6.08;100.00
41264;BME280;26998;48.714;9.414;2023-03-26T06:36:24;98150.47;;;6.09;100.00
41264;BME280;26998;48.714;9.414;2023-03-26T06:38:50;98147.28;;;6.14;100.00
41264;BME280;26998;48.714;9.414;2023-03-26T06:41:17;98143.09;;;6.26;100.00
41264;BME280;26998;48.714;9.414;2023-03-26T06:43:43;98138.69;;;6.33;100.00
41264;BME280;26998;48.714;9.414;2023-03-26T06:46:10;98150.13;;;6.34;100.00
41264;BME280;26998;48.714;9.414;2023-03-26T06:48:38;98147.75;;;6.39;100.00
41264;BME280;26998;48.714;9.414;2023-03-26T06:51:05;98138.69;;;6.33;100.00
41264;BME280;26998;48.714;9.414;2023-03-26T06:53:31;98149.81;;;6.43;100.00
41264;BME280;26998;48.714;9.414;2023-03-26T06:55:58;98168.28;;;6.52;100.00
41264;BME280;26998;48.714;9.414;2023-03-26T06:58:24;98191.06;;;6.61;100.00
41264;BME280;26998;48.714;9.414;2023-03-26T07:00:55;98186.69;;;6.75;100.00
41264;BME280;26998;48.714;9.414;2023-03-26T07:03:22;98198.13;;;6.75;100.00
41264;BME280;26998;48.714;9.414;2023-03-26T07:05:48;98199.78;;;6.76;100.00
41264;BME280;26998;48.714;9.414;2023-03-26T07:08:15;98211.59;;;6.74;100.00
41264;BME280;26998;48.714;9.414;2023-03-26T07:10:41;98215.91;;;6.75;100.00
41264;BME280;26998;48.714;9.414;2023-03-26T07:13:08;98220.28;;;6.82;100.00
41264;BME280;26998;48.714;9.414;2023-03-26T07:15:35;98211.53;;;6.88;100.00
41264;BME280;26998;48.714;9.414;2023-03-26T07:18:01;98216.66;;;6.90;100.00
41264;BME280;26998;48.714;9.414;2023-03-26T07:20:28;98200.09;;;6.88;100.00
41264;BME280;26998;48.714;9.414;2023-03-26T07:22:54;98185.91;;;7.02;100.00
41264;BME280;26998;48.714;9.414;2023-03-26T07:25:22;98162.69;;;7.11;100.00
41264;BME280;26998;48.714;9.414;2023-03-26T07:27:54;98159.44;;;7.15;100.00
41264;BME280;26998;48.714;9.414;2023-03-26T07:32:54;98143.25;;;7.38;100.00
41264;BME280;26998;48.714;9.414;2023-03-26T07:35:29;98151.66;;;7.42;100.00
41264;BME280;26998;48.714;9.414;2023-03-26T07:38:12;98161.19;;;7.30;100.00
41264;BME280;26998;48.714;9.414;2023-03-26T07:43:52;98150.41;;;7.38;100.00
41264;BME280;26998;48.714;9.414;2023-03-26T07:46:31;98167.56;;;7.35;100.00
41264;BME280;26998;48.714;9.414;2023-03-26T07:48:58;98164.03;;;7.28;100.00
41264;BME280;26998;48.714;9.414;2023-03-26T07:51:25;98151.63;;;7.35;100.00
41264;BME280;26998;48.714;9.414;2023-03-26T07:53:51;98138.34;;;7.35;100.00
41264;BME280;26998;48.714;9.414;2023-03-26T07:56:20;98124.06;;;7.43;100.00
41264;BME280;26998;48.714;9.414;2023-03-26T07:59:21;98136.28;;;7.37;100.00
41264;BME280;26998;48.714;9.414;2023-03-26T08:07:37;98133.84;;;7.36;100.00
41264;BME280;26998;48.714;9.414;2023-03-26T08:10:21;98135.03;;;7.33;100.00
41264;BME280;26998;48.714;9.414;2023-03-26T08:12:59;98134.75;;;7.22;100.00
41264;BME280;26998;48.714;9.414;2023-03-26T08:20:47;98139.72;;;7.31;100.00
41264;BME280;26998;48.714;9.414;2023-03-26T08:23:32;98154.78;;;7.17;100.00
41264;BME280;26998;48.714;9.414;2023-03-26T08:26:08;98145.97;;;7.17;100.00
41264;BME280;26998;48.714;9.414;2023-03-26T08:28:50;98121.75;;;7.05;100.00
41264;BME280;26998;48.714;9.414;2023-03-26T08:31:26;98125.09;;;7.14;100.00
41264;BME280;26998;48.714;9.414;2023-03-26T08:33:54;98118.00;;;7.21;100.00
41264;BME280;26998;48.714;9.414;2023-03-26T08:36:20;98110.44;;;7.25;100.00
41264;BME280;26998;48.714;9.414;2023-03-26T08:38:46;98107.81;;;7.31;100.00
41264;BME280;26998;48.714;9.414;2023-03-26T08:46:46;98097.81;;;7.33;100.00
41264;BME280;26998;48.714;9.414;2023-03-26T08:55:43;98079.47;;;7.38;100.00
41264;BME280;26998;48.714;9.414;2023-03-26T09:01:19;98066.16;;;7.38;100.00
41264;BME280;26998;48.714;9.414;2023-03-26T09:04:06;98066.41;;;7.50;100.00
41264;BME280;26998;48.714;9.414;2023-03-26T09:10:17;98071.84;;;7.77;100.00
41264;BME280;26998;48.714;9.414;2023-03-26T09:13:10;98075.75;;;7.87;100.00
41264;BME280;26998;48.714;9.414;2023-03-26T09:16:06;98069.88;;;7.99;100.00
41264;BME280;26998;48.714;9.414;2023-03-26T09:26:38;98103.59;;;8.60;100.00
41264;BME280;26998;48.714;9.414;2023-03-26T09:32:18;98109.75;;;8.60;100.00
41264;BME280;26998;48.714;9.414;2023-03-26T09:35:02;98108.34;;;8.97;100.00
41264;BME280;26998;48.714;9.414;2023-03-26T09:38:00;98109.34;;;8.90;100.00
41264;BME280;26998;48.714;9.414;2023-03-26T09:40:37;98112.81;;;8.97;100.00
41264;BME280;26998;48.714;9.414;2023-03-26T09:45:59;98108.09;;;9.12;100.00
41264;BME280;26998;48.714;9.414;2023-03-26T09:51:19;98091.81;;;10.05;100.00
41264;BME280;26998;48.714;9.414;2023-03-26T09:59:59;97973.34;;;11.85;100.00
41264;BME280;26998;48.714;9.414;2023-03-26T10:02:41;97898.50;;;12.02;100.00
41264;BME280;26998;48.714;9.414;2023-03-26T10:10:56;97835.19;;;12.08;100.00
41264;BME280;26998;48.714;9.414;2023-03-26T10:16:03;97863.19;;;11.40;100.00
41264;BME280;26998;48.714;9.414;2023-03-26T10:18:55;97860.38;;;11.35;100.00
41264;BME280;26998;48.714;9.414;2023-03-26T10:24:21;97902.09;;;11.05;100.00
41264;BME280;26998;48.714;9.414;2023-03-26T10:36:08;97966.72;;;11.39;100.00
41264;BME280;26998;48.714;9.414;2023-03-26T10:38:57;97891.69;;;12.65;100.00
41264;BME280;26998;48.714;9.414;2023-03-26T10:52:45;97713.25;;;12.17;100.00
41264;BME280;26998;48.714;9.414;2023-03-26T10:55:21;97740.41;;;12.61;100.00
41264;BME280;26998;48.714;9.414;2023-03-26T10:57:54;97770.19;;;12.36;100.00
41264;BME280;26998;48.714;9.414;2023-03-26T11:00:23;97711.78;;;12.09;100.00
41264;BME280;26998;48.714;9.414;2023-03-26T11:05:32;97696.41;;;11.81;100.00
41264;BME280;26998;48.714;9.414;2023-03-26T11:19:18;97566.19;;;12.15;100.00
41264;BME280;26998;48.714;9.414;2023-03-26T11:22:19;97552.06;;;12.20;100.00
41264;BME280;26998;48.714;9.414;2023-03-26T11:28:20;97530.84;;;12.64;99.18
41264;BME280;26998;48.714;9.414;2023-03-26T11:30:57;97529.34;;;12.68;99.54
41264;BME280;26998;48.714;9.414;2023-03-26T11:33:34;97528.84;;;13.44;99.00
41264;BME280;26998;48.714;9.414;2023-03-26T11:36:12;97521.06;;;13.25;97.06
41264;BME280;26998;48.714;9.414;2023-03-26T11:38:49;97517.13;;;12.94;100.00
41264;BME280;26998;48.714;9.414;2023-03-26T11:41:25;97521.63;;;13.10;100.00
41264;BME280;26998;48.714;9.414;2023-03-26T11:46:48;97520.78;;;13.66;94.64
41264;BME280;26998;48.714;9.414;2023-03-26T11:49:18;97522.28;;;13.78;93.29
41264;BME280;26998;48.714;9.414;2023-03-26T11:51:46;97514.34;;;13.45;93.06
41264;BME280;26998;48.714;9.414;2023-03-26T11:54:14;97509.66;;;13.79;94.82
41264;BME280;26998;48.714;9.414;2023-03-26T11:56:47;97514.94;;;14.50;93.86
41264;BME280;26998;48.714;9.414;2023-03-26T11:59:33;97508.09;;;14.37;93.48
41264;BME280;26998;48.714;9.414;2023-03-26T12:02:24;97499.50;;;14.67;92.76
41264;BME280;26998;48.714;9.414;2023-03-26T12:05:06;97489.97;;;14.92;94.22
41264;BME280;26998;48.714;9.414;2023-03-26T12:07:44;97495.69;;;14.95;93.99
41264;BME280;26998;48.714;9.414;2023-03-26T12:10:21;97491.41;;;14.62;94.67
41264;BME280;26998;48.714;9.414;2023-03-26T12:12:48;97498.59;;;14.57;95.83
41264;BME280;26998;48.714;9.414;2023-03-26T12:15:19;97493.25;;;14.02;90.44
41264;BME280;26998;48.714;9.414;2023-03-26T12:17:51;97491.47;;;14.40;93.32
41264;BME280;26998;48.714;9.414;2023-03-26T12:25:26;97484.00;;;14.20;94.00
41264;BME280;26998;48.714;9.414;2023-03-26T12:32:59;97495.13;;;13.31;100.00
41264;BME280;26998;48.714;9.414;2023-03-26T12:35:28;97486.28;;;13.52;100.00
41264;BME280;26998;48.714;9.414;2023-03-26T12:40:39;97486.25;;;13.74;95.00
41264;BME280;26998;48.714;9.414;2023-03-26T12:43:20;97472.88;;;14.06;96.24
41264;BME280;26998;48.714;9.414;2023-03-26T12:46:28;97457.00;;;14.64;92.88
41264;BME280;26998;48.714;9.414;2023-03-26T12:49:15;97460.91;;;14.89;84.27
41264;BME280;26998;48.714;9.414;2023-03-26T12:52:00;97459.19;;;14.67;78.94
41264;BME280;26998;48.714;9.414;2023-03-26T12:58:01;97459.72;;;14.69;54.28
41264;BME280;26998;48.714;9.414;2023-03-26T13:00:53;97472.50;;;14.52;60.92
41264;BME280;26998;48.714;9.414;2023-03-26T13:06:50;97459.88;;;14.95;63.89
41264;BME280;26998;48.714;9.414;2023-03-26T13:15:14;97440.41;;;15.30;49.94
41264;BME280;26998;48.714;9.414;2023-03-26T13:20:39;97436.34;;;15.22;49.23
41264;BME280;26998;48.714;9.414;2023-03-26T13:26:09;97433.50;;;14.92;50.42
41264;BME280;26998;48.714;9.414;2023-03-26T13:31:31;97411.22;;;14.22;54.50
41264;BME280;26998;48.714;9.414;2023-03-26T13:37:09;97417.28;;;14.07;47.01
41264;BME280;26998;48.714;9.414;2023-03-26T13:39:51;97409.41;;;13.68;47.47
41264;BME280;26998;48.714;9.414;2023-03-26T13:51:49;97395.38;;;13.39;48.82
41264;BME280;26998;48.714;9.414;2023-03-26T13:54:41;97386.25;;;13.62;52.25
41264;BME280;26998;48.714;9.414;2023-03-26T13:57:15;97387.78;;;13.53;47.51
41264;BME280;26998;48.714;9.414;2023-03-26T13:59:48;97381.59;;;13.52;49.35
41264;BME280;26998;48.714;9.414;2023-03-26T14:02:22;97379.44;;;13.81;51.29
41264;BME280;26998;48.714;9.414;2023-03-26T14:05:00;97377.00;;;13.80;47.92
41264;BME280;26998;48.714;9.414;2023-03-26T14:10:23;97375.53;;;13.94;50.23
41264;BME280;26998;48.714;9.414;2023-03-26T14:15:49;97364.13;;;13.82;49.91
41264;BME280;26998;48.714;9.414;2023-03-26T14:34:56;97371.59;;;12.60;88.53
41264;BME280;26998;48.714;9.414;2023-03-26T14:43:41;97371.97;;;12.30;88.47
41264;BME280;26998;48.714;9.414;2023-03-26T14:49:24;97385.16;;;11.40;100.00
41264;BME280;26998;48.714;9.414;2023-03-26T14:54:56;97453.66;;;10.89;100.00
41264;BME280;26998;48.714;9.414;2023-03-26T14:58:06;97467.25;;;10.64;100.00
41264;BME280;26998;48.714;9.414;2023-03-26T15:01:26;97513.47;;;10.41;100.00
41264;BME280;26998;48.714;9.414;2023-03-26T15:04:33;97666.69;;;9.73;100.00
41264;BME280;26998;48.714;9.414;2023-03-26T15:07:27;97747.59;;;9.17;100.00
41264;BME280;26998;48.714;9.414;2023-03-26T15:13:06;97805.47;;;9.10;100.00
41264;BME280;26998;48.714;9.414;2023-03-26T15:18:40;97805.06;;;9.13;100.00
41264;BME280;26998;48.714;9.414;2023-03-26T15:27:20;97763.28;;;9.32;100.00
41264;BME280;26998;48.714;9.414;2023-03-26T15:32:49;97727.19;;;9.54;100.00
41264;BME280;26998;48.714;9.414;2023-03-26T15:38:52;97711.91;;;9.43;100.00
41264;BME280;26998;48.714;9.414;2023-03-26T15:41:27;97699.31;;;9.50;100.00
41264;BME280;26998;48.714;9.414;2023-03-26T15:52:38;97697.06;;;9.29;100.00
41264;BME280;26998;48.714;9.414;2023-03-26T15:57:59;97728.47;;;8.95;100.00
41264;BME280;26998;48.714;9.414;2023-03-26T16:00:35;97740.88;;;8.76;100.00
41264;BME280;26998;48.714;9.414;2023-03-26T16:06:22;97787.75;;;8.25;100.00
41264;BME280;26998;48.714;9.414;2023-03-26T16:09:00;97827.94;;;8.04;100.00
41264;BME280;26998;48.714;9.414;2023-03-26T16:14:22;97873.38;;;8.02;100.00
41264;BME280;26998;48.714;9.414;2023-03-26T16:16:54;97894.25;;;8.12;100.00
41264;BME280;26998;48.714;9.414;2023-03-26T16:22:08;97845.75;;;7.97;100.00
41264;BME280;26998;48.714;9.414;2023-03-26T16:24:40;97839.81;;;8.01;100.00
41264;BME280;26998;48.714;9.414;2023-03-26T16:30:04;97898.34;;;8.01;100.00
41264;BME280;26998;48.714;9.414;2023-03-26T16:32:33;97890.38;;;8.01;100.00
41264;BME280;26998;48.714;9.414;2023-03-26T16:35:31;97877.47;;;7.98;100.00
41264;BME280;26998;48.714;9.414;2023-03-26T16:38:10;97895.28;;;7.98;100.00
41264;BME280;26998;48.714;9.414;2023-03-26T16:40:49;97893.00;;;7.88;100.00
41264;BME280;26998;48.714;9.414;2023-03-26T16:43:40;97866.22;;;7.83;100.00
41264;BME280;26998;48.714;9.414;2023-03-26T16:49:42;97900.59;;;7.84;100.00
41264;BME280;26998;48.714;9.414;2023-03-26T16:57:36;97858.84;;;7.78;100.00
41264;BME280;26998;48.714;9.414;2023-03-26T17:03:05;97917.34;;;7.78;100.00
41264;BME280;26998;48.714;9.414;2023-03-26T17:08:16;97950.94;;;7.73;100.00
41264;BME280;26998;48.714;9.414;2023-03-26T17:11:39;97942.91;;;7.66;100.00
41264;BME280;26998;48.714;9.414;2023-03-26T17:14:27;97985.69;;;7.71;100.00
41264;BME280;26998;48.714;9.414;2023-03-26T17:25:01;97955.16;;;7.54;100.00
41264;BME280;26998;48.714;9.414;2023-03-26T17:27:36;97973.53;;;7.42;100.00
41264;BME280;26998;48.714;9.414;2023-03-26T17:40:58;97995.97;;;7.26;100.00
41264;BME280;26998;48.714;9.414;2023-03-26T17:43:46;97973.00;;;7.12;100.00
41264;BME280;26998;48.714;9.414;2023-03-26T17:46:39;97966.47;;;7.08;100.00
41264;BME280;26998;48.714;9.414;2023-03-26T18:00:18;98002.19;;;7.05;100.00
41264;BME280;26998;48.714;9.414;2023-03-26T18:03:01;98011.00;;;7.06;100.00
41264;BME280;26998;48.714;9.414;2023-03-26T18:05:33;98011.22;;;7.11;100.00
41264;BME280;26998;48.714;9.414;2023-03-26T18:16:42;98012.22;;;7.10;100.00
41264;BME280;26998;48.714;9.414;2023-03-26T18:19:18;98060.50;;;7.13;100.00